createdAt,value
2022-11-22T00:00:45.329Z,5
2022-11-22T00:08:26.584Z,7
2022-11-22T00:14:37.136Z,5
2022-11-22T00:20:47.864Z,6
2022-11-22T00:26:58.505Z,6
2022-11-22T00:33:09.156Z,5
2022-11-22T00:39:19.842Z,5
2022-11-22T00:45:22.301Z,3
2022-11-22T00:51:32.937Z,4
2022-11-22T00:57:43.662Z,4
2022-11-22T01:02:48.382Z,3
2022-11-22T01:08:59.013Z,5
2022-11-22T01:15:09.696Z,3
2022-11-22T01:21:20.332Z,6
2022-11-22T01:27:31.249Z,4
2022-11-22T01:33:41.814Z,4
2022-11-22T01:40:58.256Z,3
2022-11-22T01:47:08.972Z,3
2022-11-22T01:53:19.628Z,3
2022-11-22T01:59:30.600Z,2
2022-11-22T02:05:40.937Z,2
2022-11-22T02:11:51.645Z,4
2022-11-22T02:18:02.298Z,4
2022-11-22T02:24:12.931Z,3
2022-11-22T02:30:23.631Z,3
2022-11-22T02:36:34.419Z,4
2022-11-22T02:41:39.005Z,4
2022-11-22T02:47:49.692Z,4
2022-11-22T02:54:00.311Z,5
2022-11-22T03:00:10.977Z,5
2022-11-22T03:06:21.679Z,4
2022-11-22T03:12:32.297Z,3
2022-11-22T03:18:42.982Z,4
2022-11-22T03:24:53.672Z,5
2022-11-22T03:31:04.320Z,2
2022-11-22T03:37:14.971Z,6
2022-11-22T03:43:17.486Z,4
2022-11-22T03:49:28.663Z,5
2022-11-22T03:55:38.767Z,8
2022-11-22T04:01:49.587Z,5
2022-11-22T04:08:00.123Z,8
2022-11-22T04:14:10.762Z,7
2022-11-22T04:20:21.462Z,4
2022-11-22T04:26:32.110Z,8
2022-11-22T04:32:42.775Z,6
2022-11-22T04:38:53.467Z,9
2022-11-22T04:44:55.916Z,9
2022-11-22T04:51:06.596Z,15
2022-11-22T04:57:17.274Z,8
2022-11-22T05:03:27.893Z,7
2022-11-22T05:08:49.017Z,10
2022-11-22T05:16:13.849Z,10
2022-11-22T05:22:24.496Z,7
2022-11-22T05:28:35.168Z,6
2022-11-22T05:34:45.831Z,7
2022-11-22T05:40:56.483Z,10
2022-11-22T05:46:58.965Z,12
2022-11-22T05:53:09.629Z,11
2022-11-22T05:59:20.257Z,11
2022-11-22T06:05:30.921Z,7
2022-11-22T06:11:41.625Z,9
2022-11-22T06:17:52.265Z,8
2022-11-22T06:24:02.951Z,8
2022-11-22T06:30:13.605Z,8
2022-11-22T06:36:24.286Z,10
2022-11-22T06:43:46.768Z,8
2022-11-22T06:49:51.570Z,7
2022-11-22T06:56:02.216Z,9
2022-11-22T07:02:12.863Z,10
2022-11-22T07:08:23.571Z,9
2022-11-22T07:14:34.208Z,9
2022-11-22T07:20:44.869Z,8
2022-11-22T07:26:55.563Z,8
2022-11-22T07:33:06.193Z,8
2022-11-22T07:38:19.107Z,8
2022-11-22T07:44:29.800Z,9
2022-11-22T07:50:40.440Z,7
2022-11-22T07:56:42.934Z,7
2022-11-22T08:02:53.739Z,7
2022-11-22T08:09:04.239Z,9
2022-11-22T08:15:14.916Z,6
2022-11-22T08:21:25.694Z,8
2022-11-22T08:27:36.233Z,8
2022-11-22T08:33:46.905Z,7
2022-11-22T08:39:57.719Z,7
2022-11-22T08:46:08.230Z,5
2022-11-22T08:52:18.919Z,6
2022-11-22T08:58:21.501Z,6
2022-11-22T09:04:32.044Z,6
2022-11-22T09:10:42.693Z,5
2022-11-22T09:17:01.670Z,9
2022-11-22T09:23:12.260Z,8
2022-11-22T09:29:22.885Z,7
2022-11-22T09:35:33.701Z,7
2022-11-22T09:41:44.198Z,6
2022-11-22T09:47:54.893Z,5
2022-11-22T09:54:05.711Z,7
2022-11-22T10:00:08.112Z,6
2022-11-22T10:06:18.836Z,8
2022-11-22T10:11:36.190Z,5
2022-11-22T10:17:42.268Z,7
2022-11-22T10:23:52.945Z,6
2022-11-22T10:30:03.776Z,7
2022-11-22T10:37:28.410Z,6
2022-11-22T10:43:39.079Z,8
2022-11-22T10:49:49.887Z,6
2022-11-22T10:57:06.330Z,5
2022-11-22T11:03:17.015Z,5
2022-11-22T11:15:38.341Z,4
2022-11-22T11:21:48.990Z,5
2022-11-22T11:27:59.801Z,6
2022-11-22T11:34:10.324Z,5
2022-11-22T11:40:20.997Z,6
2022-11-22T11:46:31.791Z,5
2022-11-22T11:52:42.323Z,4
2022-11-22T11:58:44.822Z,4
2022-11-22T12:04:55.577Z,3
2022-11-22T12:11:06.152Z,4
2022-11-22T12:17:16.784Z,3
2022-11-22T12:23:27.624Z,5
2022-11-22T12:29:38.121Z,3
2022-11-22T12:35:48.946Z,2
2022-11-22T12:41:01.843Z,5
2022-11-22T12:47:12.392Z,2
2022-11-22T12:53:23.068Z,4
2022-11-22T12:59:25.651Z,4
2022-11-22T13:05:36.184Z,4
2022-11-22T13:11:46.854Z,2
2022-11-22T13:17:57.673Z,3
2022-11-22T13:24:08.276Z,4
2022-11-22T13:29:12.913Z,3
2022-11-22T13:35:23.604Z,2
2022-11-22T13:41:34.258Z,1
2022-11-22T13:47:44.947Z,2
2022-11-22T13:53:55.726Z,3
2022-11-22T14:01:12.227Z,2
2022-11-22T14:07:22.876Z,2
2022-11-22T14:13:33.631Z,3
2022-11-22T14:19:44.187Z,2
2022-11-22T14:25:54.833Z,2
2022-11-22T14:32:05.635Z,2
2022-11-22T14:38:16.195Z,3
2022-11-22T14:44:26.845Z,2
2022-11-22T14:50:37.627Z,3
2022-11-22T14:56:48.143Z,1
2022-11-22T15:02:50.767Z,2
2022-11-22T15:09:10.828Z,2
2022-11-22T15:14:14.265Z,4
2022-11-22T15:57:28.885Z,1
2022-11-22T16:03:31.439Z,2
2022-11-22T16:09:42.013Z,1
2022-11-22T16:15:52.691Z,1
2022-11-22T16:22:03.373Z,1
2022-11-22T16:28:14.017Z,1
2022-11-22T16:34:24.668Z,1
2022-11-22T16:40:35.468Z,1
2022-11-22T16:46:46.027Z,1
2022-11-22T16:53:01.413Z,1
2022-11-22T16:59:12.356Z,2
2022-11-22T17:06:23.961Z,1
2022-11-22T17:12:34.606Z,1
2022-11-22T17:18:45.406Z,1
2022-11-22T17:24:55.977Z,2
2022-11-22T17:31:06.607Z,1
2022-11-22T17:36:11.604Z,1
2022-11-22T17:41:24.271Z,2
2022-11-22T17:47:34.903Z,1
2022-11-22T17:53:45.728Z,2
2022-11-22T17:59:56.259Z,3
2022-11-22T18:05:58.740Z,1
2022-11-22T18:12:09.543Z,1
2022-11-22T18:18:48.482Z,1
2022-11-22T18:24:30.743Z,2
2022-11-22T18:30:41.507Z,2
2022-11-22T18:37:07.508Z,1
2022-11-22T18:43:02.707Z,1
2022-11-22T18:49:13.505Z,2
2022-11-22T18:55:24.073Z,1
2022-11-22T19:01:34.909Z,1
2022-11-22T19:07:45.623Z,1
2022-11-22T19:13:47.870Z,2
2022-11-22T19:19:58.537Z,1
2022-11-22T19:26:09.306Z,6
2022-11-22T19:32:19.856Z,2
2022-11-22T19:38:30.506Z,3
2022-11-22T19:44:41.303Z,2
2022-11-22T19:50:51.899Z,2
2022-11-22T19:57:02.508Z,2
2022-11-22T20:03:13.289Z,3
2022-11-22T20:08:26.083Z,1
2022-11-22T20:14:28.817Z,1
2022-11-22T20:20:39.338Z,1
2022-11-22T20:26:49.934Z,2
2022-11-22T20:33:00.576Z,2
2022-11-22T20:39:11.396Z,3
2022-11-22T20:45:21.944Z,3
2022-11-22T20:51:32.605Z,2
2022-11-22T20:57:43.365Z,3
2022-11-22T21:03:53.888Z,4
2022-11-22T21:10:04.572Z,4
2022-11-22T21:16:21.391Z,4
2022-11-22T21:22:17.688Z,5
2022-11-22T21:28:28.370Z,6
2022-11-22T21:34:39.162Z,4
2022-11-22T21:40:49.782Z,4
2022-11-22T21:45:54.410Z,6
2022-11-22T21:52:05.214Z,9
2022-11-22T21:58:15.767Z,7
2022-11-22T22:04:26.412Z,6
2022-11-22T22:10:37.232Z,6
2022-11-22T22:16:39.557Z,9
2022-11-22T22:22:50.410Z,17
2022-11-22T22:29:01.010Z,8
2022-11-22T22:35:11.559Z,7
2022-11-22T22:40:24.487Z,8
2022-11-22T22:46:35.274Z,6
2022-11-22T22:52:45.780Z,6
2022-11-22T22:58:56.529Z,7
2022-11-22T23:05:07.238Z,8
2022-11-22T23:11:17.800Z,10
2022-11-22T23:17:20.249Z,9
2022-11-22T23:23:31.092Z,5
2022-11-22T23:29:41.738Z,6
2022-11-22T23:35:52.267Z,4
2022-11-22T23:42:03.082Z,4
2022-11-22T23:48:13.605Z,5
2022-11-22T23:54:24.297Z,6
